createdAt,value
2018-04-02T00:02:10.922Z,10.77
2018-04-02T00:04:38.491Z,9.83
2018-04-02T00:07:06.054Z,10.30
2018-04-02T00:09:33.641Z,11.30
2018-04-02T00:12:01.200Z,10.07
2018-04-02T00:14:28.759Z,11.20
2018-04-02T00:16:57.070Z,11.53
2018-04-02T00:19:25.407Z,12.30
2018-04-02T00:21:52.940Z,11.93
2018-04-02T00:24:20.557Z,11.70
2018-04-02T00:26:48.145Z,12.00
2018-04-02T00:29:16.488Z,12.00
2018-04-02T00:31:44.086Z,12.03
2018-04-02T00:34:13.432Z,13.27
2018-04-02T00:36:41.011Z,12.87
2018-04-02T00:39:08.547Z,12.23
2018-04-02T00:41:36.115Z,13.50
2018-04-02T00:44:05.188Z,12.20
2018-04-02T00:46:32.750Z,13.07
2018-04-02T00:49:00.287Z,11.97
2018-04-02T00:51:28.626Z,12.53
2018-04-02T00:53:56.211Z,12.43
2018-04-02T00:56:24.588Z,12.87
2018-04-02T00:58:53.016Z,12.93
2018-04-02T01:01:20.567Z,12.50
2018-04-02T01:03:48.159Z,12.27
2018-04-02T01:06:15.735Z,13.63
2018-04-02T01:08:43.306Z,12.13
2018-04-02T01:11:10.850Z,12.23
2018-04-02T01:13:38.506Z,11.83
2018-04-02T01:16:06.066Z,13.33
2018-04-02T01:18:33.763Z,11.33
2018-04-02T01:21:02.110Z,11.70
2018-04-02T01:23:29.697Z,11.73
2018-04-02T01:25:58.014Z,11.90
2018-04-02T01:28:25.554Z,12.20
2018-04-02T01:30:53.168Z,9.97
2018-04-02T01:33:20.752Z,11.07
2018-04-02T01:35:49.089Z,11.83
2018-04-02T01:38:16.644Z,10.97
2018-04-02T01:40:44.215Z,11.10
2018-04-02T01:43:11.772Z,10.47
2018-04-02T01:45:40.324Z,11.30
2018-04-02T01:48:07.884Z,10.97
2018-04-02T01:50:36.408Z,11.23
2018-04-02T01:53:04.050Z,11.77
2018-04-02T01:55:32.169Z,11.57
2018-04-02T01:57:59.760Z,12.17
2018-04-02T02:00:32.123Z,11.23
2018-04-02T02:03:00.472Z,12.40
2018-04-02T02:05:28.043Z,13.27
2018-04-02T02:07:56.380Z,13.43
2018-04-02T02:10:23.913Z,12.03
2018-04-02T02:12:51.477Z,13.53
2018-04-02T02:15:19.055Z,14.03
2018-04-02T02:17:46.664Z,12.30
2018-04-02T02:20:14.992Z,12.73
2018-04-02T02:22:42.550Z,12.87
2018-04-02T02:25:10.134Z,13.87
2018-04-02T02:27:37.704Z,13.20
2018-04-02T02:30:05.293Z,14.27
2018-04-02T02:32:33.619Z,14.60
2018-04-02T02:35:01.227Z,14.17
2018-04-02T02:37:29.709Z,13.97
2018-04-02T02:39:58.057Z,14.23
2018-04-02T02:42:25.622Z,14.43
2018-04-02T02:44:53.277Z,15.60
2018-04-02T02:47:21.804Z,15.67
2018-04-02T02:49:50.133Z,13.53
2018-04-02T02:52:17.691Z,13.80
2018-04-02T02:54:45.273Z,13.73
2018-04-02T02:57:12.855Z,14.80
2018-04-02T02:59:41.191Z,15.80
2018-04-02T03:02:08.784Z,16.30
2018-04-02T03:04:36.350Z,16.30
2018-04-02T03:07:03.941Z,15.80
2018-04-02T03:09:31.530Z,16.23
2018-04-02T03:11:59.092Z,17.23
2018-04-02T03:14:26.659Z,16.53
2018-04-02T03:16:54.214Z,17.77
2018-04-02T03:19:21.771Z,16.13
2018-04-02T03:21:49.330Z,16.60
2018-04-02T03:24:16.883Z,16.73
2018-04-02T03:26:44.447Z,17.27
2018-04-02T03:29:13.023Z,17.57
2018-04-02T03:31:40.596Z,16.63
2018-04-02T03:34:08.157Z,17.03
2018-04-02T03:36:35.747Z,18.57
2018-04-02T03:39:03.341Z,17.50
2018-04-02T03:41:30.944Z,18.53
2018-04-02T03:43:58.490Z,16.87
2018-04-02T03:46:26.066Z,17.17
2018-04-02T03:48:53.628Z,19.60
2018-04-02T03:51:21.195Z,17.90
2018-04-02T03:53:48.764Z,18.93
2018-04-02T03:56:16.352Z,18.30
2018-04-02T03:58:44.796Z,20.57
2018-04-02T04:01:12.381Z,19.03
2018-04-02T04:03:39.962Z,20.03
2018-04-02T04:06:07.558Z,20.33
2018-04-02T04:08:35.149Z,17.83
2018-04-02T04:11:02.715Z,20.90
2018-04-02T04:13:30.300Z,20.10
2018-04-02T04:15:58.751Z,20.33
2018-04-02T04:18:26.337Z,19.07
2018-04-02T04:20:54.659Z,20.90
2018-04-02T04:23:22.322Z,19.23
2018-04-02T04:25:49.872Z,19.67
2018-04-02T04:28:17.457Z,18.90
2018-04-02T04:30:45.044Z,19.23
2018-04-02T04:33:12.643Z,20.00
2018-04-02T04:35:41.135Z,20.20
2018-04-02T04:38:08.713Z,20.70
2018-04-02T04:40:36.339Z,20.30
2018-04-02T04:43:04.687Z,19.67
2018-04-02T04:45:32.311Z,20.17
2018-04-02T04:47:59.884Z,19.77
2018-04-02T04:50:27.457Z,20.50
2018-04-02T04:52:55.019Z,19.53
2018-04-02T04:55:22.579Z,21.67
2018-04-02T04:57:50.165Z,20.00
2018-04-02T05:00:18.520Z,20.67
2018-04-02T05:02:46.087Z,20.23
2018-04-02T05:05:13.656Z,19.77
2018-04-02T05:07:41.269Z,19.30
2018-04-02T05:10:08.864Z,19.57
2018-04-02T05:12:36.454Z,19.13
2018-04-02T05:15:04.797Z,19.93
2018-04-02T05:17:32.376Z,19.27
2018-04-02T05:19:59.970Z,20.33
2018-04-02T05:22:27.554Z,19.90
2018-04-02T05:24:55.135Z,19.57
2018-04-02T05:27:22.714Z,20.57
2018-04-02T05:29:50.286Z,19.90
2018-04-02T05:32:18.620Z,21.07
2018-04-02T05:34:46.210Z,20.87
2018-04-02T05:37:13.819Z,20.63
2018-04-02T05:39:41.377Z,18.80
2018-04-02T05:42:10.037Z,18.37
2018-04-02T05:44:37.645Z,18.53
2018-04-02T05:47:05.234Z,20.50
2018-04-02T05:49:32.844Z,19.63
2018-04-02T05:52:01.186Z,18.13
2018-04-02T05:54:28.725Z,18.77
2018-04-02T05:56:56.304Z,17.87
2018-04-02T05:59:23.895Z,18.30
2018-04-02T06:01:51.529Z,18.37
2018-04-02T06:04:19.088Z,18.87
2018-04-02T06:06:46.686Z,18.23
2018-04-02T06:09:14.303Z,15.97
2018-04-02T06:11:41.847Z,17.70
2018-04-02T06:14:09.427Z,17.90
2018-04-02T06:16:37.030Z,18.33
2018-04-02T06:19:04.628Z,17.43
2018-04-02T06:21:32.182Z,17.93
2018-04-02T06:23:59.778Z,19.13
2018-04-02T06:26:27.343Z,17.67
2018-04-02T06:28:54.894Z,17.40
2018-04-02T06:31:22.490Z,17.57
2018-04-02T06:33:50.827Z,17.60
2018-04-02T06:36:18.397Z,18.03
2018-04-02T06:38:45.955Z,16.03
2018-04-02T06:41:13.552Z,16.73
2018-04-02T06:43:41.909Z,15.80
2018-04-02T06:46:10.552Z,15.17
2018-04-02T06:48:38.176Z,15.57
2018-04-02T06:51:06.626Z,15.20
2018-04-02T06:53:35.332Z,15.50
2018-04-02T06:56:03.507Z,14.63
2018-04-02T06:58:31.559Z,14.37
2018-04-02T07:00:59.839Z,14.60
2018-04-02T07:03:27.778Z,13.93
2018-04-02T07:05:55.592Z,15.13
2018-04-02T07:08:23.427Z,12.67
2018-04-02T07:10:51.963Z,12.80
2018-04-02T07:13:22.858Z,13.77
2018-04-02T07:15:50.666Z,12.60
2018-04-02T07:18:18.523Z,13.23
2018-04-02T07:20:48.081Z,13.00
2018-04-02T07:23:15.669Z,12.33
2018-04-02T07:25:43.521Z,12.37
2018-04-02T07:28:12.749Z,11.47
2018-04-02T07:30:41.458Z,11.57
2018-04-02T07:33:11.042Z,11.27
2018-04-02T07:35:39.444Z,11.63
2018-04-02T07:38:10.033Z,12.87
2018-04-02T07:40:39.122Z,11.27
2018-04-02T07:43:06.741Z,11.07
2018-04-02T07:45:34.498Z,11.23
2018-04-02T07:48:03.016Z,11.07
2018-04-02T07:50:33.471Z,11.30
2018-04-02T07:53:01.288Z,11.90
2018-04-02T07:55:28.894Z,11.63
2018-04-02T07:57:57.823Z,11.73
2018-04-02T08:00:25.532Z,10.70
2018-04-02T08:02:55.297Z,11.20
2018-04-02T08:05:23.114Z,10.20
2018-04-02T08:07:50.932Z,10.83
2018-04-02T08:10:18.604Z,10.53
2018-04-02T08:12:46.582Z,10.67
2018-04-02T08:15:14.756Z,10.53
2018-04-02T08:17:43.411Z,10.77
2018-04-02T08:20:11.843Z,9.90
2018-04-02T08:22:40.571Z,10.40
2018-04-02T08:25:09.014Z,10.43
2018-04-02T08:27:39.777Z,10.20
2018-04-02T08:30:07.620Z,10.00
2018-04-02T08:32:37.074Z,9.83
2018-04-02T08:35:05.877Z,11.10
2018-04-02T08:37:34.892Z,10.93
2018-04-02T08:40:02.727Z,10.10
2018-04-02T08:42:31.332Z,9.67
2018-04-02T08:44:59.886Z,9.30
2018-04-02T08:47:30.596Z,9.83
2018-04-02T08:50:00.102Z,9.87
2018-04-02T08:52:28.452Z,9.80
2018-04-02T08:54:56.778Z,8.97
2018-04-02T08:57:29.364Z,8.53
2018-04-02T08:59:59.057Z,9.70
2018-04-02T09:02:27.624Z,9.27
2018-04-02T09:04:56.017Z,8.80
2018-04-02T09:07:24.919Z,8.53
2018-04-02T09:23:23.521Z,8.00
2018-04-02T09:25:52.806Z,8.40
2018-04-02T09:28:21.907Z,7.83
2018-04-02T09:30:50.437Z,7.50
2018-04-02T09:33:18.720Z,7.20
2018-04-02T09:35:46.341Z,7.37
2018-04-02T09:38:13.917Z,6.83
2018-04-02T09:40:42.276Z,6.83
2018-04-02T09:43:10.635Z,7.20
2018-04-02T09:45:38.218Z,6.93
2018-04-02T09:48:05.870Z,7.33
2018-04-02T09:50:33.444Z,7.10
2018-04-02T09:53:00.998Z,7.07
2018-04-02T09:55:28.530Z,7.00
2018-04-02T09:57:56.098Z,7.57
2018-04-02T10:00:29.305Z,7.10
2018-04-02T10:02:56.907Z,6.47
2018-04-02T10:05:24.491Z,6.20
2018-04-02T10:07:52.054Z,6.63
2018-04-02T10:10:19.664Z,6.70
2018-04-02T10:12:47.192Z,6.33
2018-04-02T10:15:14.750Z,5.77
2018-04-02T10:17:42.315Z,5.70
2018-04-02T10:20:09.903Z,5.57
2018-04-02T10:22:37.465Z,5.60
2018-04-02T10:25:05.014Z,5.47
2018-04-02T10:27:32.582Z,5.70
2018-04-02T10:30:00.254Z,5.57
2018-04-02T10:32:28.546Z,5.60
2018-04-02T10:34:56.121Z,5.03
2018-04-02T10:37:24.591Z,4.70
2018-04-02T10:39:52.158Z,4.40
2018-04-02T10:42:20.711Z,4.80
2018-04-02T10:44:48.229Z,4.67
2018-04-02T10:47:15.793Z,4.60
2018-04-02T10:49:43.973Z,4.23
2018-04-02T10:52:11.539Z,4.90
2018-04-02T10:54:39.090Z,5.30
2018-04-02T10:57:07.391Z,4.63
2018-04-02T10:59:35.055Z,4.73
2018-04-02T11:02:02.916Z,5.10
2018-04-02T11:04:30.558Z,5.37
2018-04-02T11:06:59.176Z,5.90
2018-04-02T11:09:26.745Z,5.20
2018-04-02T11:11:55.106Z,5.93
2018-04-02T11:14:22.838Z,5.27
2018-04-02T11:16:51.525Z,5.03
2018-04-02T11:19:19.114Z,5.07
2018-04-02T11:21:46.749Z,4.53
2018-04-02T11:24:14.363Z,5.40
2018-04-02T11:26:42.089Z,5.40
2018-04-02T11:29:09.653Z,5.63
2018-04-02T11:31:38.033Z,5.30
2018-04-02T11:34:05.581Z,5.60
2018-04-02T11:36:33.172Z,6.00
2018-04-02T11:39:01.518Z,5.73
2018-04-02T11:41:29.099Z,6.10
2018-04-02T11:43:56.662Z,6.00
2018-04-02T11:46:24.236Z,6.30
2018-04-02T11:48:52.606Z,5.40
2018-04-02T11:51:20.136Z,5.97
2018-04-02T11:53:47.686Z,5.90
2018-04-02T11:56:15.290Z,5.70
2018-04-02T11:58:43.820Z,5.50
2018-04-02T12:01:11.371Z,5.37
2018-04-02T12:03:38.951Z,6.40
2018-04-02T12:06:06.612Z,5.57
2018-04-02T12:08:34.241Z,5.80
2018-04-02T12:11:01.886Z,4.80
2018-04-02T12:13:29.422Z,5.73
2018-04-02T12:15:56.992Z,4.97
2018-04-02T12:18:24.531Z,4.97
2018-04-02T12:20:52.124Z,5.10
2018-04-02T12:23:19.655Z,4.33
2018-04-02T12:25:47.259Z,4.50
2018-04-02T12:28:14.808Z,4.23
2018-04-02T12:30:43.143Z,5.03
2018-04-02T12:33:10.701Z,4.80
2018-04-02T12:35:38.279Z,4.57
2018-04-02T12:38:06.838Z,4.90
2018-04-02T12:40:34.418Z,4.50
2018-04-02T12:43:01.992Z,4.37
2018-04-02T12:45:30.308Z,4.20
2018-04-02T12:47:57.871Z,4.70
2018-04-02T12:50:25.430Z,4.80
2018-04-02T12:52:53.006Z,4.70
2018-04-02T12:55:20.544Z,4.90
2018-04-02T12:57:48.862Z,4.20
2018-04-02T13:00:16.434Z,4.70
2018-04-02T13:02:44.012Z,4.47
2018-04-02T13:05:11.576Z,4.33
2018-04-02T13:07:39.134Z,4.60
2018-04-02T13:10:06.696Z,4.43
2018-04-02T13:12:34.252Z,4.50
2018-04-02T13:15:02.839Z,5.37
2018-04-02T13:17:30.397Z,4.87
2018-04-02T13:19:58.034Z,4.63
2018-04-02T13:22:25.562Z,4.30
2018-04-02T13:24:53.140Z,4.77
2018-04-02T13:27:20.707Z,5.10
2018-04-02T13:29:48.238Z,4.27
2018-04-02T13:32:15.842Z,5.00
2018-04-02T13:34:44.719Z,4.93
2018-04-02T13:37:12.281Z,5.33
2018-04-02T13:39:39.831Z,5.60
2018-04-02T13:42:07.385Z,4.67
2018-04-02T13:44:34.941Z,4.50
2018-04-02T13:47:02.530Z,5.10
2018-04-02T13:49:30.095Z,4.80
2018-04-02T13:51:57.653Z,4.60
2018-04-02T13:54:26.189Z,4.83
2018-04-02T13:56:53.754Z,4.70
2018-04-02T13:59:21.348Z,5.10
2018-04-02T14:01:48.890Z,5.40
2018-04-02T14:04:16.457Z,5.30
2018-04-02T14:06:43.998Z,4.77
2018-04-02T14:09:11.578Z,4.83
2018-04-02T14:11:39.133Z,5.03
2018-04-02T14:14:06.709Z,6.27
2018-04-02T14:16:35.026Z,6.20
2018-04-02T14:19:02.562Z,5.83
2018-04-02T14:21:30.151Z,4.90
2018-04-02T14:23:57.694Z,5.03
2018-04-02T14:26:25.258Z,5.60
2018-04-02T14:28:52.804Z,4.80
2018-04-02T14:31:20.368Z,5.10
2018-04-02T14:33:47.900Z,4.97
2018-04-02T14:36:15.466Z,5.77
2018-04-02T14:38:43.070Z,5.67
2018-04-02T14:41:10.624Z,5.50
2018-04-02T14:43:38.181Z,5.20
2018-04-02T14:46:05.767Z,5.97
2018-04-02T14:48:33.398Z,5.50
2018-04-02T14:51:00.965Z,5.53
2018-04-02T14:53:28.518Z,6.00
2018-04-02T14:55:57.190Z,6.00
2018-04-02T14:58:24.742Z,5.67
2018-04-02T15:00:52.363Z,6.33
2018-04-02T15:03:20.669Z,6.43
2018-04-02T15:05:48.227Z,5.53
2018-04-02T15:08:15.805Z,6.10
2018-04-02T15:10:43.350Z,6.30
2018-04-02T15:13:10.927Z,5.87
2018-04-02T15:15:38.479Z,6.30
2018-04-02T15:18:06.065Z,6.73
2018-04-02T15:20:33.610Z,6.23
2018-04-02T15:23:02.170Z,7.07
2018-04-02T15:25:29.826Z,6.93
2018-04-02T15:27:57.405Z,7.47
2018-04-02T15:30:24.948Z,7.43
2018-04-02T15:32:53.275Z,6.83
2018-04-02T15:35:20.864Z,7.30
2018-04-02T15:37:49.183Z,6.90
2018-04-02T15:40:16.808Z,6.50
2018-04-02T15:42:45.119Z,7.33
2018-04-02T15:45:12.690Z,7.70
2018-04-02T15:47:40.239Z,7.43
2018-04-02T15:50:07.802Z,7.10
2018-04-02T15:52:35.378Z,7.97
2018-04-02T15:55:02.992Z,8.87
2018-04-02T15:57:31.319Z,8.77
2018-04-02T15:59:58.895Z,8.03
2018-04-02T16:02:26.451Z,7.23
2018-04-02T16:04:53.984Z,8.37
2018-04-02T16:07:21.575Z,7.63
2018-04-02T16:09:49.111Z,7.80
2018-04-02T16:12:16.669Z,7.63
2018-04-02T16:14:44.224Z,7.90
2018-04-02T16:17:11.780Z,8.43
2018-04-02T16:19:39.330Z,8.27
2018-04-02T16:22:06.923Z,7.33
2018-04-02T16:24:34.483Z,8.30
2018-04-02T16:27:02.101Z,8.63
2018-04-02T16:29:29.682Z,8.00
2018-04-02T16:31:57.296Z,8.03
2018-04-02T16:34:24.858Z,8.10
2018-04-02T16:36:52.442Z,9.20
2018-04-02T16:39:20.048Z,8.50
2018-04-02T16:41:47.614Z,7.90
2018-04-02T16:44:15.191Z,7.90
2018-04-02T16:46:42.750Z,7.97
2018-04-02T16:49:10.357Z,9.13
2018-04-02T16:51:37.908Z,8.33
2018-04-02T16:54:06.323Z,9.17
2018-04-02T16:56:33.910Z,8.33
2018-04-02T16:59:01.503Z,8.40
2018-04-02T17:01:29.838Z,8.13
2018-04-02T17:03:58.159Z,8.63
2018-04-02T17:06:26.474Z,8.77
2018-04-02T17:08:54.022Z,8.43
2018-04-02T17:11:21.641Z,8.53
2018-04-02T17:13:49.214Z,7.73
2018-04-02T17:16:17.586Z,8.57
2018-04-02T17:18:45.918Z,7.97
2018-04-02T17:21:13.474Z,8.53
2018-04-02T17:23:41.044Z,8.47
2018-04-02T17:26:08.656Z,9.13
2018-04-02T17:28:36.380Z,9.10
2018-04-02T17:31:03.999Z,8.97
2018-04-02T17:33:31.672Z,9.37
2018-04-02T17:35:59.220Z,9.00
2018-04-02T17:38:26.936Z,8.87
2018-04-02T17:40:54.561Z,8.83
2018-04-02T17:43:22.138Z,9.77
2018-04-02T17:45:50.682Z,9.83
2018-04-02T17:48:19.001Z,9.10
2018-04-02T17:50:46.581Z,9.70
2018-04-02T17:53:14.150Z,9.10
2018-04-02T17:55:42.696Z,9.40
2018-04-02T17:58:10.242Z,9.03
2018-04-02T18:00:37.810Z,9.87
2018-04-02T18:03:05.378Z,9.23
2018-04-02T18:05:32.938Z,9.40
2018-04-02T18:08:00.494Z,8.97
2018-04-02T18:10:28.102Z,9.60
2018-04-02T19:43:10.399Z,14.37
2018-04-02T19:45:37.973Z,14.30
2018-04-02T19:48:05.533Z,14.90
2018-04-02T19:50:33.145Z,14.33
2018-04-02T19:53:00.959Z,14.13
2018-04-02T19:55:28.529Z,14.30
2018-04-02T19:57:56.126Z,15.10
2018-04-02T20:00:24.476Z,14.67
2018-04-02T20:02:52.078Z,12.83
2018-04-02T20:05:19.651Z,14.53
2018-04-02T20:07:47.249Z,14.80
2018-04-02T20:10:14.798Z,13.83
2018-04-02T20:12:42.447Z,14.57
2018-04-02T20:15:10.111Z,13.37
2018-04-02T20:17:37.710Z,13.33
2018-04-02T20:20:05.308Z,13.63
2018-04-02T20:22:32.871Z,13.40
2018-04-02T20:25:00.498Z,13.97
2018-04-02T20:27:28.102Z,14.13
2018-04-02T20:29:56.136Z,13.37
2018-04-02T20:32:24.477Z,13.70
2018-04-02T20:34:52.055Z,12.97
2018-04-02T20:37:19.610Z,13.40
2018-04-02T20:39:47.214Z,14.20
2018-04-02T20:42:15.570Z,12.37
2018-04-02T20:44:43.201Z,14.10
2018-04-02T20:47:10.771Z,13.87
2018-04-02T20:49:40.235Z,13.47
2018-04-02T20:52:07.844Z,14.20
2018-04-02T20:54:36.364Z,12.63
2018-04-02T20:57:04.879Z,12.13
2018-04-02T20:59:32.459Z,13.87
2018-04-02T21:02:01.041Z,12.83
2018-04-02T21:04:28.611Z,12.63
2018-04-02T21:06:56.992Z,13.10
2018-04-02T21:09:24.653Z,13.93
2018-04-02T21:11:57.968Z,12.67
2018-04-02T21:14:26.325Z,12.93
2018-04-02T21:16:53.873Z,12.80
2018-04-02T21:19:21.446Z,13.47
2018-04-02T21:21:48.989Z,12.77
2018-04-02T21:24:16.573Z,13.03
2018-04-02T21:26:44.133Z,12.97
2018-04-02T21:29:11.729Z,13.20
2018-04-02T21:31:39.585Z,12.37
2018-04-02T21:34:07.892Z,12.73
2018-04-02T21:36:35.477Z,12.90
2018-04-02T21:39:03.087Z,12.83
2018-04-02T21:41:31.607Z,13.20
2018-04-02T21:43:59.181Z,13.50
2018-04-02T21:46:26.773Z,13.33
2018-04-02T21:48:54.353Z,13.43
2018-04-02T21:51:22.713Z,13.43
2018-04-02T21:53:50.270Z,13.30
2018-04-02T21:56:17.885Z,14.73
2018-04-02T21:58:45.454Z,14.13
2018-04-02T22:01:12.998Z,12.80
2018-04-02T22:03:40.579Z,13.97
2018-04-02T22:06:08.118Z,13.30
2018-04-02T22:08:35.707Z,12.97
2018-04-02T22:11:03.300Z,13.67
2018-04-02T22:13:31.703Z,14.23
2018-04-02T22:15:59.282Z,13.90
2018-04-02T22:18:26.858Z,14.30
2018-04-02T22:20:54.411Z,14.77
2018-04-02T22:23:21.987Z,14.20
2018-04-02T22:25:49.545Z,14.20
2018-04-02T22:28:17.130Z,13.73
2018-04-02T22:30:45.146Z,13.53
2018-04-02T22:33:12.746Z,13.17
2018-04-02T22:35:40.320Z,13.80
2018-04-02T22:38:08.863Z,13.33
2018-04-02T22:40:36.431Z,13.67
2018-04-02T22:43:03.994Z,13.93
2018-04-02T22:45:32.244Z,13.97
2018-04-02T22:47:59.813Z,13.40
2018-04-02T22:50:27.402Z,13.87
2018-04-02T22:52:54.978Z,13.70
2018-04-02T22:55:22.561Z,14.37
2018-04-02T22:57:50.109Z,14.73
2018-04-02T23:00:17.665Z,13.63
2018-04-02T23:02:45.222Z,14.20
2018-04-02T23:05:12.800Z,12.97
2018-04-02T23:07:40.442Z,13.43
2018-04-02T23:10:08.068Z,14.20
2018-04-02T23:12:40.313Z,12.80
2018-04-02T23:15:07.896Z,14.30
2018-04-02T23:17:36.360Z,13.87
2018-04-02T23:20:04.661Z,13.17
2018-04-02T23:22:44.196Z,13.43
2018-04-02T23:25:11.755Z,14.53
2018-04-02T23:27:39.335Z,14.07
2018-04-02T23:30:06.995Z,13.03
2018-04-02T23:32:34.553Z,13.27
2018-04-02T23:35:02.096Z,13.20
2018-04-02T23:37:29.662Z,12.87
2018-04-02T23:39:58.228Z,13.23
2018-04-02T23:42:25.841Z,13.27
2018-04-02T23:44:53.419Z,12.50
2018-04-02T23:47:20.986Z,14.10
2018-04-02T23:49:49.344Z,13.47
2018-04-02T23:52:16.901Z,14.30
2018-04-02T23:54:44.479Z,14.33
2018-04-02T23:57:12.044Z,15.03
2018-04-02T23:59:39.609Z,13.27
